Mount Laguna, California
Current Conditions -  °F | °C
As of 6:08 AM on Tuesday 21 Oct 2014 (Local Time) from KRNM Reporting Station
Haze Haze  
Wind Chill: 58°   Ceiling: 300
Heat Index: 58°   Visibility: 1.2mi
Dew Point: 57°   Wind: 5mph
Humidity: 97%   Direction: 130°SE
Pressure: 29.92"   Gusts: NA
Location:  32.87°N, 116.42°W
Report Text: KRNM 211308Z AUTO 13004KT 1 1/4SM BR OVC003 14/14 A2992 RMK AO2 T01440139 TSNO
Loading
Personal Weather Stations






























Interactive Weather Map
Tropical Storm Tracking
New forecast layout! Learn more

10-Day Weather Forecast

Advertisements
Track Severe Weather on mobile